createdAt,value
2023-04-22T00:00:15.098Z,14.50
2023-04-22T00:02:38.950Z,13.85
2023-04-22T00:05:02.788Z,12.52
2023-04-22T00:07:26.504Z,13.52
2023-04-22T00:09:50.666Z,15.38
2023-04-22T00:12:15.754Z,13.63
2023-04-22T00:14:39.614Z,13.93
2023-04-22T00:17:03.272Z,13.73
2023-04-22T00:19:26.804Z,13.95
2023-04-22T00:21:50.634Z,14.07
2023-04-22T00:24:14.174Z,13.95
2023-04-22T00:26:37.910Z,13.40
2023-04-22T00:29:02.799Z,13.80
2023-04-22T00:31:26.570Z,13.52
2023-04-22T00:33:50.188Z,13.50
2023-04-22T00:36:13.858Z,14.70
2023-04-22T00:38:37.804Z,15.02
2023-04-22T00:41:01.425Z,15.70
2023-04-22T00:43:24.963Z,17.98
2023-04-22T00:45:51.100Z,18.92
2023-04-22T00:48:15.616Z,17.95
2023-04-22T00:50:39.292Z,19.05
2023-04-22T00:53:02.883Z,18.40
2023-04-22T00:55:26.920Z,16.33
2023-04-22T00:57:52.130Z,15.75
2023-04-22T01:00:16.376Z,12.75
2023-04-22T01:02:42.452Z,13.52
2023-04-22T01:05:08.511Z,12.65
2023-04-22T01:07:32.024Z,12.10
2023-04-22T01:09:55.852Z,12.32
2023-04-22T01:12:19.425Z,11.38
2023-04-22T01:14:43.427Z,12.20
2023-04-22T01:17:10.146Z,10.90
2023-04-22T01:19:35.193Z,11.43
2023-04-22T01:22:01.072Z,11.38
2023-04-22T01:24:26.588Z,11.35
2023-04-22T01:26:50.299Z,10.90
2023-04-22T01:29:15.394Z,11.40
2023-04-22T01:31:39.628Z,11.50
2023-04-22T01:34:03.661Z,11.65
2023-04-22T01:36:27.467Z,11.20
2023-04-22T01:38:51.333Z,10.88
2023-04-22T01:41:16.530Z,11.10
2023-04-22T01:43:40.834Z,11.30
2023-04-22T01:46:06.276Z,10.75
2023-04-22T01:48:29.932Z,10.95
2023-04-22T01:50:53.521Z,11.50
2023-04-22T01:53:17.176Z,10.98
2023-04-22T01:55:41.556Z,11.05
2023-04-22T01:58:07.586Z,10.68
2023-04-22T02:00:31.981Z,11.10
2023-04-22T02:02:55.709Z,11.38
2023-04-22T02:05:21.687Z,11.02
2023-04-22T02:07:45.407Z,11.38
2023-04-22T02:10:13.999Z,11.82
2023-04-22T02:12:37.680Z,11.73
2023-04-22T02:15:03.325Z,11.00
2023-04-22T02:17:27.135Z,11.02
2023-04-22T02:19:50.698Z,11.05
2023-04-22T02:22:14.341Z,10.88
2023-04-22T02:24:38.066Z,11.55
2023-04-22T02:27:01.683Z,11.82
2023-04-22T02:29:25.434Z,10.98
2023-04-22T02:31:55.249Z,10.68
2023-04-22T02:34:19.100Z,10.88
2023-04-22T02:36:43.471Z,11.05
2023-04-22T02:39:07.014Z,10.63
2023-04-22T02:41:32.113Z,11.10
2023-04-22T02:43:55.689Z,11.50
2023-04-22T02:46:19.421Z,10.48
2023-04-22T02:48:44.642Z,10.52
2023-04-22T02:51:08.410Z,11.43
2023-04-22T02:53:32.090Z,10.82
2023-04-22T02:55:55.771Z,10.93
2023-04-22T02:58:19.463Z,10.95
2023-04-22T03:00:43.498Z,10.73
2023-04-22T03:03:07.291Z,10.98
2023-04-22T03:05:32.907Z,10.50
2023-04-22T03:07:57.711Z,11.50
2023-04-22T03:10:21.514Z,10.40
2023-04-22T03:12:45.101Z,10.30
2023-04-22T03:15:10.480Z,11.05
2023-04-22T03:17:34.778Z,10.82
2023-04-22T03:20:01.857Z,9.93
2023-04-22T03:22:27.652Z,10.55
2023-04-22T03:24:54.130Z,11.07
2023-04-22T03:27:18.018Z,10.88
2023-04-22T03:29:41.963Z,10.60
2023-04-22T03:32:05.828Z,10.43
2023-04-22T03:34:30.496Z,10.65
2023-04-22T03:36:54.188Z,10.68
2023-04-22T03:39:20.147Z,10.48
2023-04-22T03:41:43.748Z,10.80
2023-04-22T03:44:07.886Z,10.45
2023-04-22T03:46:32.726Z,10.77
2023-04-22T03:49:05.381Z,10.60
2023-04-22T03:51:31.453Z,10.90
2023-04-22T03:53:57.845Z,11.32
2023-04-22T03:56:25.791Z,10.98
2023-04-22T03:58:52.717Z,12.02
2023-04-22T04:01:16.995Z,11.63
2023-04-22T04:03:44.906Z,11.57
2023-04-22T04:06:10.089Z,11.20
2023-04-22T04:08:33.902Z,11.43
2023-04-22T04:10:57.539Z,11.45
2023-04-22T04:13:22.877Z,11.75
2023-04-22T04:16:10.787Z,11.85
2023-04-22T04:18:37.449Z,11.85
2023-04-22T04:21:01.093Z,11.57
2023-04-22T04:23:27.211Z,12.48
2023-04-22T04:25:51.987Z,11.70
2023-04-22T04:28:17.659Z,11.48
2023-04-22T04:30:42.867Z,11.30
2023-04-22T04:33:07.448Z,12.07
2023-04-22T04:35:34.429Z,11.93
2023-04-22T04:37:59.379Z,12.15
2023-04-22T04:40:23.618Z,12.18
2023-04-22T04:43:19.783Z,13.25
2023-04-22T04:45:49.692Z,13.00
2023-04-22T04:48:19.961Z,12.47
2023-04-22T04:50:50.357Z,12.23
2023-04-22T04:53:14.426Z,11.85
2023-04-22T04:55:40.146Z,13.00
2023-04-22T04:58:11.669Z,12.02
2023-04-22T05:00:35.519Z,12.65
2023-04-22T05:03:00.708Z,12.63
2023-04-22T05:05:24.933Z,12.05
2023-04-22T05:07:48.883Z,12.27
2023-04-22T05:10:13.825Z,12.27
2023-04-22T05:12:37.669Z,12.15
2023-04-22T05:15:05.012Z,12.05
2023-04-22T05:17:29.170Z,11.80
2023-04-22T05:19:54.610Z,12.10
2023-04-22T05:22:18.672Z,12.57
2023-04-22T05:24:44.205Z,12.38
2023-04-22T05:27:08.311Z,11.38
2023-04-22T05:29:32.632Z,11.48
2023-04-22T05:31:57.912Z,11.68
2023-04-22T05:34:21.793Z,12.25
2023-04-22T05:36:47.627Z,11.88
2023-04-22T05:39:11.273Z,12.10
2023-04-22T05:41:35.309Z,12.23
2023-04-22T05:43:59.902Z,12.80
2023-04-22T05:46:24.417Z,12.25
2023-04-22T05:48:49.437Z,12.52
2023-04-22T05:51:31.397Z,12.15
2023-04-22T05:53:57.251Z,12.68
2023-04-22T05:56:22.310Z,12.55
2023-04-22T05:58:45.976Z,12.05
2023-04-22T06:01:17.649Z,12.18
2023-04-22T06:03:48.747Z,12.82
2023-04-22T06:06:12.574Z,11.80
2023-04-22T06:08:36.651Z,11.73
2023-04-22T06:11:02.476Z,11.20
2023-04-22T06:13:29.316Z,11.20
2023-04-22T06:15:53.056Z,12.30
2023-04-22T06:18:16.670Z,11.68
2023-04-22T06:20:40.972Z,11.02
2023-04-22T06:23:06.115Z,11.43
2023-04-22T06:25:29.982Z,11.15
2023-04-22T06:27:55.023Z,11.77
2023-04-22T06:30:19.839Z,11.68
2023-04-22T06:32:43.457Z,11.68
2023-04-22T06:35:08.698Z,10.90
2023-04-22T06:37:32.937Z,11.88
2023-04-22T06:39:56.728Z,11.02
2023-04-22T06:42:38.876Z,11.55
2023-04-22T06:45:22.508Z,10.88
2023-04-22T06:47:56.569Z,11.15
2023-04-22T06:50:26.654Z,11.00
2023-04-22T06:52:54.557Z,9.98
2023-04-22T06:55:18.473Z,11.52
2023-04-22T06:57:42.051Z,10.23
2023-04-22T07:00:09.440Z,10.10
2023-04-22T07:02:38.288Z,10.50
2023-04-22T07:05:02.019Z,10.43
2023-04-22T07:07:26.028Z,10.38
2023-04-22T07:09:49.797Z,10.18
2023-04-22T07:12:13.324Z,10.27
2023-04-22T07:14:38.140Z,10.10
2023-04-22T07:17:01.762Z,10.30
2023-04-22T07:19:26.880Z,10.32
2023-04-22T07:21:50.836Z,10.43
2023-04-22T07:24:14.471Z,9.50
2023-04-22T07:26:38.258Z,9.48
2023-04-22T07:29:01.861Z,9.80
2023-04-22T07:31:25.465Z,9.30
2023-04-22T07:33:49.064Z,10.32
2023-04-22T07:36:14.057Z,10.43
2023-04-22T07:38:38.067Z,9.52
2023-04-22T07:41:02.099Z,9.55
2023-04-22T07:43:26.157Z,10.18
2023-04-22T07:45:49.833Z,9.57
2023-04-22T07:48:13.505Z,9.80
2023-04-22T07:50:38.841Z,10.52
2023-04-22T07:53:03.975Z,10.80
2023-04-22T07:55:27.499Z,10.18
2023-04-22T07:57:51.120Z,10.00
2023-04-22T08:00:16.106Z,10.02
2023-04-22T08:02:39.768Z,10.48
2023-04-22T08:05:03.495Z,9.82
2023-04-22T08:07:32.927Z,9.25
2023-04-22T08:09:58.640Z,9.50
2023-04-22T08:12:22.268Z,9.93
2023-04-22T08:14:45.803Z,9.45
2023-04-22T08:17:09.434Z,9.43
2023-04-22T08:19:33.012Z,9.20
2023-04-22T08:21:56.610Z,8.90
2023-04-22T08:24:20.173Z,9.25
2023-04-22T08:26:45.185Z,9.25
2023-04-22T08:29:08.964Z,9.32
2023-04-22T08:31:32.725Z,9.23
2023-04-22T08:33:56.560Z,8.52
2023-04-22T08:36:22.807Z,9.50
2023-04-22T08:38:48.328Z,9.35
2023-04-22T08:41:14.523Z,9.02
2023-04-22T08:43:39.854Z,9.18
2023-04-22T08:46:03.611Z,8.93
2023-04-22T08:48:27.864Z,8.55
2023-04-22T08:50:52.008Z,8.15
2023-04-22T08:53:15.992Z,8.40
2023-04-22T08:55:41.311Z,8.20
2023-04-22T08:58:06.264Z,8.98
2023-04-22T09:00:32.270Z,8.60
2023-04-22T09:02:57.493Z,8.00
2023-04-22T09:05:27.972Z,8.73
2023-04-22T09:07:51.910Z,8.45
2023-04-22T09:10:16.975Z,8.23
2023-04-22T09:12:51.064Z,8.90
2023-04-22T09:15:14.798Z,7.72
2023-04-22T09:17:39.796Z,8.20
2023-04-22T09:20:06.182Z,7.65
2023-04-22T09:22:38.327Z,7.93
2023-04-22T09:25:02.233Z,7.60
2023-04-22T09:27:26.928Z,8.27
2023-04-22T09:29:51.457Z,7.63
2023-04-22T09:32:19.346Z,7.93
2023-04-22T09:34:51.905Z,7.90
2023-04-22T09:37:15.516Z,7.90
2023-04-22T09:39:39.412Z,7.35
2023-04-22T09:42:03.299Z,7.85
2023-04-22T09:44:29.378Z,7.68
2023-04-22T09:46:57.860Z,7.18
2023-04-22T09:49:23.196Z,7.28
2023-04-22T09:51:49.880Z,7.43
2023-04-22T09:54:13.570Z,7.18
2023-04-22T09:56:48.203Z,7.55
2023-04-22T09:59:12.199Z,7.00
2023-04-22T10:01:37.998Z,7.05
2023-04-22T10:04:01.770Z,6.53
2023-04-22T10:06:25.548Z,6.03
2023-04-22T10:08:50.606Z,6.55
2023-04-22T10:11:14.422Z,6.30
2023-04-22T10:13:38.144Z,6.35
2023-04-22T10:16:02.696Z,5.97
2023-04-22T10:18:28.726Z,5.60
2023-04-22T10:20:53.084Z,6.07
2023-04-22T10:23:20.839Z,6.82
2023-04-22T10:25:51.449Z,6.28
2023-04-22T10:28:18.459Z,5.80
2023-04-22T10:30:42.317Z,5.80
2023-04-22T10:33:39.200Z,6.05
2023-04-22T10:36:14.765Z,6.22
2023-04-22T10:38:40.130Z,6.18
2023-04-22T10:41:05.310Z,6.30
2023-04-22T10:43:43.070Z,6.07
2023-04-22T10:46:06.842Z,6.32
2023-04-22T10:48:51.682Z,6.00
2023-04-22T10:51:40.168Z,5.30
2023-04-22T10:54:03.763Z,5.43
2023-04-22T10:56:28.950Z,5.43
2023-04-22T10:58:52.811Z,5.60
2023-04-22T11:01:16.932Z,5.55
2023-04-22T11:03:41.178Z,5.70
2023-04-22T11:06:19.451Z,5.45
2023-04-22T11:08:47.591Z,5.60
2023-04-22T11:11:13.793Z,5.22
2023-04-22T11:13:39.049Z,5.90
2023-04-22T11:16:03.570Z,5.60
2023-04-22T11:18:28.447Z,5.10
2023-04-22T11:20:53.741Z,5.60
2023-04-22T11:23:26.508Z,5.28
2023-04-22T11:25:54.703Z,5.30
2023-04-22T11:28:22.872Z,5.10
2023-04-22T11:30:51.687Z,5.15
2023-04-22T11:33:17.671Z,4.85
2023-04-22T11:35:42.727Z,5.22
2023-04-22T11:38:08.774Z,5.68
2023-04-22T11:40:36.918Z,5.50
2023-04-22T11:43:05.783Z,5.65
2023-04-22T11:45:31.344Z,5.00
2023-04-22T11:47:57.450Z,6.05
2023-04-22T11:50:26.868Z,5.95
2023-04-22T11:52:53.563Z,6.05
2023-04-22T11:55:21.077Z,4.95
2023-04-22T11:57:46.736Z,5.20
2023-04-22T12:00:17.467Z,5.28
2023-04-22T12:02:42.437Z,5.72
2023-04-22T12:05:15.841Z,5.07
2023-04-22T12:07:40.396Z,5.70
2023-04-22T12:10:05.620Z,5.75
2023-04-22T12:12:33.056Z,6.10
2023-04-22T12:14:58.076Z,5.85
2023-04-22T12:17:25.652Z,5.80
2023-04-22T12:19:49.511Z,5.72
2023-04-22T12:22:14.659Z,6.00
2023-04-22T12:24:38.215Z,6.03
2023-04-22T12:27:01.926Z,10.68
2023-04-22T12:29:34.047Z,6.63
2023-04-22T12:31:57.741Z,5.72
2023-04-22T12:34:21.264Z,5.70
2023-04-22T12:36:44.967Z,5.15
2023-04-22T12:39:10.688Z,5.38
2023-04-22T12:41:34.363Z,4.93
2023-04-22T12:43:57.922Z,5.22
2023-04-22T12:46:21.679Z,4.90
2023-04-22T12:48:45.834Z,5.10
2023-04-22T12:51:09.461Z,5.03
2023-04-22T12:53:33.119Z,5.43
2023-04-22T12:55:58.494Z,4.93
2023-04-22T12:58:22.062Z,4.95
2023-04-22T13:00:45.692Z,4.40
2023-04-22T13:03:09.397Z,5.00
2023-04-22T13:05:33.282Z,5.03
2023-04-22T13:08:06.586Z,5.10
2023-04-22T13:10:31.118Z,5.32
2023-04-22T13:13:09.804Z,5.50
2023-04-22T13:15:40.515Z,5.63
2023-04-22T13:18:04.161Z,5.47
2023-04-22T13:20:27.917Z,5.72
2023-04-22T13:22:53.568Z,4.97
2023-04-22T13:25:17.352Z,5.25
2023-04-22T13:27:40.884Z,4.88
2023-04-22T13:30:07.637Z,5.38
2023-04-22T13:32:31.335Z,5.47
2023-04-22T13:34:55.047Z,5.72
2023-04-22T13:37:20.219Z,5.45
2023-04-22T13:39:43.874Z,5.40
2023-04-22T13:42:07.723Z,5.50
2023-04-22T13:44:31.624Z,5.72
2023-04-22T13:46:56.561Z,5.13
2023-04-22T13:49:20.204Z,5.13
2023-04-22T13:51:43.780Z,5.93
2023-04-22T13:54:08.517Z,5.72
2023-04-22T13:56:32.103Z,5.78
2023-04-22T13:58:56.126Z,5.38
2023-04-22T14:01:19.802Z,5.72
2023-04-22T14:03:45.687Z,5.82
2023-04-22T14:06:09.484Z,6.20
2023-04-22T14:08:33.151Z,5.93
2023-04-22T14:10:57.233Z,6.15
2023-04-22T14:13:21.291Z,5.90
2023-04-22T14:15:44.894Z,6.60
2023-04-22T14:18:08.570Z,6.47
2023-04-22T14:20:33.556Z,6.50
2023-04-22T14:22:57.244Z,5.95
2023-04-22T14:25:20.957Z,6.50
2023-04-22T14:27:44.675Z,6.15
2023-04-22T14:30:09.740Z,6.35
2023-04-22T14:32:33.846Z,6.43
2023-04-22T14:34:57.447Z,6.00
2023-04-22T14:37:23.866Z,6.05
2023-04-22T14:39:47.895Z,6.55
2023-04-22T14:42:11.574Z,6.00
2023-04-22T14:44:36.285Z,6.35
2023-04-22T14:46:59.923Z,6.60
2023-04-22T14:49:23.580Z,6.25
2023-04-22T14:51:47.257Z,6.60
2023-04-22T14:54:12.260Z,6.07
2023-04-22T14:56:36.180Z,5.78
2023-04-22T14:58:59.754Z,6.13
2023-04-22T15:01:23.483Z,5.80
2023-04-22T15:03:49.001Z,6.40
2023-04-22T15:06:13.026Z,6.25
2023-04-22T15:08:36.755Z,5.82
2023-04-22T15:11:01.839Z,5.88
2023-04-22T15:13:25.829Z,5.97
2023-04-22T15:15:49.509Z,6.00
2023-04-22T15:18:13.100Z,5.97
2023-04-22T15:20:37.363Z,5.90
2023-04-22T15:23:03.220Z,6.30
2023-04-22T15:25:27.625Z,6.10
2023-04-22T15:27:56.509Z,6.00
2023-04-22T15:30:20.231Z,5.53
2023-04-22T15:32:44.239Z,6.25
2023-04-22T15:35:09.615Z,5.70
2023-04-22T15:37:33.467Z,5.53
2023-04-22T15:39:57.149Z,6.18
2023-04-22T15:42:21.283Z,6.05
2023-04-22T15:44:46.434Z,6.60
2023-04-22T15:47:11.193Z,5.80
2023-04-22T15:49:35.732Z,6.03
2023-04-22T15:52:01.115Z,5.82
2023-04-22T15:54:24.721Z,6.22
2023-04-22T15:56:48.316Z,5.90
2023-04-22T15:59:11.966Z,6.47
2023-04-22T16:01:40.332Z,6.28
2023-04-22T16:04:04.959Z,6.00
2023-04-22T16:06:29.156Z,5.78
2023-04-22T16:09:02.850Z,5.93
2023-04-22T16:11:26.662Z,6.45
2023-04-22T16:13:50.237Z,5.65
2023-04-22T16:16:14.025Z,5.97
2023-04-22T16:18:44.215Z,6.07
2023-04-22T16:21:11.539Z,5.90
2023-04-22T16:26:49.063Z,5.97
2023-04-22T16:29:24.850Z,5.70
2023-04-22T16:31:48.565Z,5.75
2023-04-22T16:34:13.529Z,5.80
2023-04-22T16:36:37.121Z,6.10
2023-04-22T16:39:00.901Z,6.00
2023-04-22T16:41:24.954Z,5.50
2023-04-22T16:43:49.265Z,5.57
2023-04-22T16:46:13.068Z,5.28
2023-04-22T16:48:37.200Z,5.03
2023-04-22T16:51:03.660Z,5.10
2023-04-22T16:53:27.283Z,5.55
2023-04-22T16:55:50.944Z,5.55
2023-04-22T16:58:17.167Z,5.50
2023-04-22T17:00:47.128Z,5.68
2023-04-22T17:03:12.090Z,5.75
2023-04-22T17:05:35.813Z,5.90
2023-04-22T17:08:01.195Z,5.05
2023-04-22T17:10:25.072Z,6.38
2023-04-22T17:12:53.458Z,5.85
2023-04-22T17:15:21.205Z,6.50
2023-04-22T17:17:48.321Z,5.75
2023-04-22T17:20:12.711Z,5.93
2023-04-22T17:22:36.350Z,5.57
2023-04-22T17:25:01.292Z,11.05
2023-04-22T17:27:28.472Z,5.95
2023-04-22T17:29:54.177Z,6.00
2023-04-22T17:32:21.960Z,5.88
2023-04-22T17:34:45.644Z,5.50
2023-04-22T17:37:12.981Z,6.10
2023-04-22T17:39:41.098Z,6.28
2023-04-22T17:42:06.316Z,5.97
2023-04-22T17:44:31.095Z,6.47
2023-04-22T17:46:54.739Z,6.15
2023-04-22T17:49:18.378Z,6.18
2023-04-22T17:51:41.997Z,6.50
2023-04-22T17:54:06.429Z,6.30
2023-04-22T17:56:39.683Z,6.05
2023-04-22T17:59:12.726Z,6.07
2023-04-22T18:04:42.692Z,7.30
2023-04-22T18:07:06.315Z,7.95
2023-04-22T18:09:35.125Z,7.65
2023-04-22T18:12:29.263Z,8.70
2023-04-22T18:15:07.688Z,10.07
2023-04-22T18:17:35.875Z,9.68
2023-04-22T18:20:18.532Z,10.75
2023-04-22T18:22:56.379Z,10.57
2023-04-22T18:25:21.936Z,9.95
2023-04-22T18:27:54.999Z,9.15
2023-04-22T18:30:23.740Z,9.57
2023-04-22T18:32:48.144Z,9.25
2023-04-22T18:35:11.984Z,10.40
2023-04-22T18:37:39.110Z,9.65
2023-04-22T18:40:06.043Z,10.80
2023-04-22T18:42:47.700Z,10.68
2023-04-22T18:45:13.637Z,10.77
2023-04-22T18:47:49.459Z,10.88
2023-04-22T18:50:19.988Z,10.07
2023-04-22T18:52:45.286Z,9.07
2023-04-22T18:55:16.385Z,9.93
2023-04-22T18:57:41.670Z,9.70
2023-04-22T19:00:08.475Z,10.50
2023-04-22T19:02:39.963Z,10.27
2023-04-22T19:05:10.040Z,10.55
2023-04-22T19:07:39.468Z,10.48
2023-04-22T19:10:05.392Z,13.48
2023-04-22T19:12:31.814Z,11.48
2023-04-22T19:15:01.499Z,12.60
2023-04-22T19:17:27.160Z,13.05
2023-04-22T19:19:51.507Z,12.82
2023-04-22T19:22:16.955Z,12.52
2023-04-22T19:24:41.349Z,12.40
2023-04-22T19:27:12.143Z,12.18
2023-04-22T19:29:36.159Z,12.07
2023-04-22T19:32:00.651Z,11.60
2023-04-22T19:34:24.668Z,12.40
2023-04-22T19:36:49.899Z,12.75
2023-04-22T19:39:17.618Z,11.95
2023-04-22T19:41:41.756Z,12.70
2023-04-22T19:44:06.843Z,11.90
2023-04-22T19:46:31.622Z,12.98
2023-04-22T19:48:57.315Z,12.82
2023-04-22T19:51:21.846Z,12.82
2023-04-22T19:53:46.814Z,12.45
2023-04-22T19:56:12.774Z,12.80
2023-04-22T19:58:37.201Z,14.77
2023-04-22T20:01:02.603Z,15.88
2023-04-22T20:03:28.162Z,20.38
2023-04-22T20:05:54.476Z,18.23
2023-04-22T20:08:21.966Z,20.35
2023-04-22T20:10:49.738Z,25.15
2023-04-22T20:13:16.074Z,25.92
2023-04-22T20:15:41.201Z,30.60
2023-04-22T20:18:05.864Z,29.50
2023-04-22T20:20:33.605Z,28.67
2023-04-22T20:23:00.413Z,29.75
2023-04-22T20:25:24.969Z,27.75
2023-04-22T20:27:50.310Z,26.67
2023-04-22T20:30:17.029Z,28.33
2023-04-22T20:32:42.218Z,25.60
2023-04-22T20:35:11.549Z,26.45
2023-04-22T20:37:37.110Z,26.58
2023-04-22T20:40:04.292Z,25.52
2023-04-22T20:42:29.096Z,26.05
2023-04-22T20:44:53.132Z,26.30
2023-04-22T20:47:19.060Z,24.52
2023-04-22T20:49:45.242Z,26.20
2023-04-22T20:52:09.699Z,24.70
2023-04-22T20:54:34.165Z,26.10
2023-04-22T20:56:59.022Z,25.13
2023-04-22T20:59:22.872Z,23.83
2023-04-22T21:01:49.463Z,21.60
2023-04-22T21:04:17.101Z,21.00
2023-04-22T21:06:41.972Z,20.50
2023-04-22T21:09:08.004Z,19.52
2023-04-22T21:11:32.919Z,19.85
2023-04-22T21:13:57.784Z,19.45
2023-04-22T21:16:26.851Z,17.63
2023-04-22T21:18:51.976Z,18.55
2023-04-22T21:21:19.168Z,18.33
2023-04-22T21:23:43.147Z,17.38
2023-04-22T21:26:07.539Z,16.70
2023-04-22T21:28:31.968Z,17.35
2023-04-22T21:30:56.678Z,16.30
2023-04-22T21:33:20.239Z,15.57
2023-04-22T21:35:43.973Z,16.05
2023-04-22T21:38:10.765Z,14.93
2023-04-22T21:40:35.509Z,15.15
2023-04-22T21:43:00.995Z,15.00
2023-04-22T21:45:25.141Z,14.35
2023-04-22T21:47:49.035Z,14.52
2023-04-22T21:50:13.297Z,14.10
2023-04-22T21:52:37.817Z,14.25
2023-04-22T21:55:04.083Z,14.93
2023-04-22T21:57:28.403Z,13.63
2023-04-22T21:59:52.493Z,14.55
2023-04-22T22:02:16.851Z,14.18
2023-04-22T22:04:42.320Z,14.05
2023-04-22T22:07:06.677Z,13.95
2023-04-22T22:09:34.976Z,13.32
2023-04-22T22:12:01.941Z,14.32
2023-04-22T22:14:26.337Z,13.25
2023-04-22T22:16:54.533Z,13.65
2023-04-22T22:19:20.711Z,14.32
2023-04-22T22:21:44.651Z,13.80
2023-04-22T22:24:09.945Z,13.30
2023-04-22T22:26:36.365Z,14.00
2023-04-22T22:29:01.779Z,13.57
2023-04-22T22:31:26.460Z,12.98
2023-04-22T22:33:50.624Z,12.35
2023-04-22T22:36:15.020Z,12.32
2023-04-22T22:38:39.561Z,12.20
2023-04-22T22:41:04.612Z,12.57
2023-04-22T22:43:28.671Z,11.60
2023-04-22T22:45:55.705Z,11.75
2023-04-22T22:48:20.187Z,11.27
2023-04-22T22:50:46.779Z,12.70
2023-04-22T22:53:10.539Z,11.68
2023-04-22T22:55:37.347Z,11.40
2023-04-22T22:58:05.169Z,10.82
2023-04-22T23:00:29.405Z,11.43
2023-04-22T23:02:54.745Z,11.75
2023-04-22T23:05:19.100Z,11.27
2023-04-22T23:07:43.617Z,10.73
2023-04-22T23:10:09.594Z,11.73
2023-04-22T23:12:34.648Z,11.27
2023-04-22T23:14:59.021Z,11.38
2023-04-22T23:17:23.232Z,11.23
2023-04-22T23:19:52.297Z,11.55
2023-04-22T23:22:16.831Z,11.95
2023-04-22T23:24:41.933Z,11.40
2023-04-22T23:27:07.184Z,11.43
2023-04-22T23:29:32.151Z,11.32
2023-04-22T23:31:57.004Z,10.85
2023-04-22T23:34:23.860Z,11.88
2023-04-22T23:36:50.062Z,10.60
2023-04-22T23:39:13.562Z,11.10
2023-04-22T23:41:37.809Z,10.63
2023-04-22T23:44:01.984Z,11.07
2023-04-22T23:46:27.771Z,10.52
2023-04-22T23:48:51.545Z,10.50
2023-04-22T23:51:16.872Z,11.13
2023-04-22T23:53:41.877Z,10.80
2023-04-22T23:56:06.492Z,10.85
2023-04-22T23:58:30.669Z,10.43
